createdAt,value
2018-08-09T00:00:50.190Z,1015.07
2018-08-09T00:01:50.170Z,1015.07
2018-08-09T00:02:50.152Z,1015.03
2018-08-09T00:03:50.134Z,1014.99
2018-08-09T00:04:50.114Z,1015.02
2018-08-09T00:05:50.099Z,1015.01
2018-08-09T00:06:50.081Z,1014.97
2018-08-09T00:07:50.062Z,1014.99
2018-08-09T00:08:50.044Z,1015.01
2018-08-09T00:09:50.027Z,1014.96
2018-08-09T00:10:50.010Z,1015.02
2018-08-09T00:11:49.992Z,1015.01
2018-08-09T00:12:49.973Z,1015.03
2018-08-09T00:13:49.955Z,1015.05
2018-08-09T00:14:49.939Z,1015.05
2018-08-09T00:15:49.921Z,1015.02
2018-08-09T00:16:49.901Z,1015.05
2018-08-09T00:17:49.888Z,1015.08
2018-08-09T00:18:49.865Z,1015.12
2018-08-09T00:19:49.847Z,1015.14
2018-08-09T00:20:49.835Z,1015.15
2018-08-09T00:21:49.812Z,1015.16
2018-08-09T00:22:49.793Z,1015.18
2018-08-09T00:23:49.839Z,1015.20
2018-08-09T00:24:49.760Z,1015.17
2018-08-09T00:25:49.739Z,1015.16
2018-08-09T00:26:49.722Z,1015.17
2018-08-09T00:27:49.703Z,1015.21
2018-08-09T00:28:49.684Z,1015.21
2018-08-09T00:29:49.667Z,1015.18
2018-08-09T00:30:49.650Z,1015.20
2018-08-09T00:31:49.631Z,1015.18
2018-08-09T00:32:49.613Z,1015.18
2018-08-09T00:33:49.595Z,1015.20
2018-08-09T00:34:49.576Z,1015.16
2018-08-09T00:35:49.560Z,1015.20
2018-08-09T00:36:49.542Z,1015.15
2018-08-09T00:37:49.523Z,1015.21
2018-08-09T00:38:49.504Z,1015.20
2018-08-09T00:39:49.488Z,1015.24
2018-08-09T00:40:49.468Z,1015.29
2018-08-09T00:41:49.449Z,1015.31
2018-08-09T00:42:49.433Z,1015.28
2018-08-09T00:43:49.413Z,1015.28
2018-08-09T00:44:49.395Z,1015.29
2018-08-09T00:45:49.378Z,1015.22
2018-08-09T00:46:49.360Z,1015.22
2018-08-09T00:47:49.341Z,1015.17
2018-08-09T00:48:49.322Z,1015.13
2018-08-09T00:49:49.305Z,1015.15
2018-08-09T00:50:49.286Z,1015.13
2018-08-09T00:51:49.268Z,1015.13
2018-08-09T00:52:49.249Z,1015.13
2018-08-09T00:53:49.232Z,1015.12
2018-08-09T00:54:49.214Z,1015.18
2018-08-09T00:55:49.196Z,1015.13
2018-08-09T00:56:49.176Z,1015.14
2018-08-09T00:57:49.163Z,1015.11
2018-08-09T00:58:49.141Z,1015.13
2018-08-09T00:59:49.121Z,1015.12
2018-08-09T01:00:49.104Z,1015.11
2018-08-09T01:01:49.086Z,1015.11
2018-08-09T01:02:49.067Z,1015.08
2018-08-09T01:03:49.050Z,1015.08
2018-08-09T01:04:49.031Z,1015.07
2018-08-09T01:05:49.013Z,1015.12
2018-08-09T01:06:48.995Z,1015.05
2018-08-09T01:07:48.976Z,1015.03
2018-08-09T01:08:48.956Z,1015.08
2018-08-09T01:09:48.939Z,1015.04
2018-08-09T01:10:48.922Z,1015.03
2018-08-09T01:11:48.904Z,1015.01
2018-08-09T01:12:48.884Z,1015.02
2018-08-09T01:13:48.868Z,1014.99
2018-08-09T01:14:48.847Z,1015.01
2018-08-09T01:15:48.831Z,1015.01
2018-08-09T01:16:48.811Z,1015.00
2018-08-09T01:17:48.792Z,1015.03
2018-08-09T01:18:48.773Z,1015.01
2018-08-09T01:19:48.757Z,1014.98
2018-08-09T01:20:48.736Z,1014.96
2018-08-09T01:21:48.719Z,1015.02
2018-08-09T01:22:48.700Z,1015.03
2018-08-09T01:23:48.681Z,1014.99
2018-08-09T01:24:48.666Z,1015.02
2018-08-09T01:25:48.645Z,1014.99
2018-08-09T01:26:48.627Z,1014.97
2018-08-09T01:27:48.608Z,1014.93
2018-08-09T01:28:48.589Z,1014.91
2018-08-09T01:29:48.572Z,1014.94
2018-08-09T01:30:48.554Z,1014.95
2018-08-09T01:31:48.536Z,1014.95
2018-08-09T01:32:48.519Z,1014.95
2018-08-09T01:33:48.496Z,1014.94
2018-08-09T01:34:48.478Z,1014.97
2018-08-09T01:35:48.463Z,1014.94
2018-08-09T01:36:48.441Z,1014.96
2018-08-09T01:37:48.423Z,1014.96
2018-08-09T01:38:48.403Z,1014.97
2018-08-09T01:39:48.389Z,1014.98
2018-08-09T01:40:48.367Z,1014.95
2018-08-09T01:41:48.348Z,1014.97
2018-08-09T01:42:48.329Z,1014.99
2018-08-09T01:43:48.310Z,1014.95
2018-08-09T01:44:48.294Z,1014.94
2018-08-09T01:45:48.272Z,1014.95
2018-08-09T01:46:48.255Z,1014.98
2018-08-09T01:47:48.236Z,1014.99
2018-08-09T01:48:48.217Z,1015.01
2018-08-09T01:49:48.198Z,1014.99
2018-08-09T01:50:48.181Z,1015.04
2018-08-09T01:51:48.160Z,1015.06
2018-08-09T01:52:48.141Z,1015.02
2018-08-09T01:53:48.123Z,1015.05
2018-08-09T01:54:48.107Z,1015.06
2018-08-09T01:55:48.086Z,1015.03
2018-08-09T01:56:48.073Z,1015.02
2018-08-09T01:57:48.048Z,1015.03
2018-08-09T01:58:48.031Z,1015.03
2018-08-09T01:59:48.012Z,1015.08
2018-08-09T02:00:47.997Z,1015.11
2018-08-09T02:01:47.975Z,1015.07
2018-08-09T02:02:47.955Z,1015.13
2018-08-09T02:03:47.936Z,1015.11
2018-08-09T02:04:47.969Z,1015.12
2018-08-09T02:05:47.897Z,1015.14
2018-08-09T02:06:47.881Z,1015.15
2018-08-09T02:07:47.919Z,1015.16
2018-08-09T02:08:47.841Z,1015.15
2018-08-09T02:09:47.823Z,1015.18
2018-08-09T02:10:47.811Z,1015.17
2018-08-09T02:11:47.785Z,1015.18
2018-08-09T02:12:47.766Z,1015.15
2018-08-09T02:13:47.747Z,1015.15
2018-08-09T02:14:47.727Z,1015.16
2018-08-09T02:15:47.710Z,1015.15
2018-08-09T02:16:47.689Z,1015.16
2018-08-09T02:17:47.672Z,1015.17
2018-08-09T02:18:47.653Z,1015.14
2018-08-09T02:19:47.633Z,1015.17
2018-08-09T02:20:47.615Z,1015.12
2018-08-09T02:21:47.595Z,1015.12
2018-08-09T02:22:47.576Z,1015.13
2018-08-09T02:23:47.558Z,1015.13
2018-08-09T02:24:47.537Z,1015.13
2018-08-09T02:25:47.519Z,1015.12
2018-08-09T02:26:47.500Z,1015.11
2018-08-09T02:27:47.480Z,1015.08
2018-08-09T02:28:47.462Z,1015.10
2018-08-09T02:29:47.443Z,1015.10
2018-08-09T02:30:47.424Z,1015.11
2018-08-09T02:31:47.404Z,1015.12
2018-08-09T02:32:47.386Z,1015.13
2018-08-09T02:33:47.365Z,1015.16
2018-08-09T02:34:47.347Z,1015.17
2018-08-09T02:35:47.328Z,1015.12
2018-08-09T02:36:47.310Z,1015.13
2018-08-09T02:37:47.289Z,1015.14
2018-08-09T02:38:47.271Z,1015.15
2018-08-09T02:39:47.251Z,1015.11
2018-08-09T02:40:47.230Z,1015.17
2018-08-09T02:41:47.212Z,1015.15
2018-08-09T02:42:47.196Z,1015.19
2018-08-09T02:43:47.175Z,1015.16
2018-08-09T02:44:47.156Z,1015.21
2018-08-09T02:45:47.135Z,1015.22
2018-08-09T02:46:47.132Z,1015.25
2018-08-09T02:47:47.098Z,1015.26
2018-08-09T02:48:47.078Z,1015.24
2018-08-09T02:49:47.061Z,1015.28
2018-08-09T02:50:47.040Z,1015.25
2018-08-09T02:51:47.025Z,1015.27
2018-08-09T02:52:47.000Z,1015.26
2018-08-09T02:53:46.981Z,1015.31
2018-08-09T02:54:46.962Z,1015.30
2018-08-09T02:55:46.954Z,1015.30
2018-08-09T02:56:46.924Z,1015.32
2018-08-09T02:57:46.907Z,1015.29
2018-08-09T02:58:46.887Z,1015.30
2018-08-09T02:59:46.871Z,1015.33
2018-08-09T03:00:46.847Z,1015.31
2018-08-09T03:01:46.828Z,1015.32
2018-08-09T03:02:46.807Z,1015.34
2018-08-09T03:03:46.788Z,1015.39
2018-08-09T03:04:46.769Z,1015.39
2018-08-09T03:05:46.749Z,1015.40
2018-08-09T03:06:46.732Z,1015.43
2018-08-09T03:07:46.710Z,1015.46
2018-08-09T03:08:46.690Z,1015.45
2018-08-09T03:09:46.674Z,1015.48
2018-08-09T03:10:46.651Z,1015.50
2018-08-09T03:11:46.631Z,1015.50
2018-08-09T03:12:46.611Z,1015.56
2018-08-09T03:13:46.594Z,1015.55
2018-08-09T03:14:46.573Z,1015.55
2018-08-09T03:15:46.556Z,1015.55
2018-08-09T03:16:46.535Z,1015.59
2018-08-09T03:17:46.515Z,1015.59
2018-08-09T03:18:46.496Z,1015.55
2018-08-09T03:19:46.475Z,1015.54
2018-08-09T03:20:46.457Z,1015.52
2018-08-09T03:21:46.436Z,1015.51
2018-08-09T03:22:46.418Z,1015.57
2018-08-09T03:23:46.397Z,1015.59
2018-08-09T03:24:46.376Z,1015.53
2018-08-09T03:25:46.359Z,1015.58
2018-08-09T03:26:46.339Z,1015.54
2018-08-09T03:27:46.320Z,1015.52
2018-08-09T03:28:46.301Z,1015.57
2018-08-09T03:29:46.279Z,1015.64
2018-08-09T03:30:46.260Z,1015.58
2018-08-09T03:31:46.242Z,1015.60
2018-08-09T03:32:46.221Z,1015.59
2018-08-09T03:33:46.202Z,1015.62
2018-08-09T03:34:46.182Z,1015.60
2018-08-09T03:35:46.162Z,1015.61
2018-08-09T03:36:46.142Z,1015.60
2018-08-09T03:37:46.123Z,1015.63
2018-08-09T03:38:46.101Z,1015.61
2018-08-09T03:39:46.084Z,1015.63
2018-08-09T03:40:46.063Z,1015.63
2018-08-09T03:41:46.044Z,1015.64
2018-08-09T03:42:46.026Z,1015.62
2018-08-09T03:43:46.005Z,1015.59
2018-08-09T03:44:45.983Z,1015.61
2018-08-09T03:45:45.963Z,1015.58
2018-08-09T03:46:45.945Z,1015.64
2018-08-09T03:47:45.924Z,1015.62
2018-08-09T03:48:45.905Z,1015.66
2018-08-09T03:49:45.885Z,1015.63
2018-08-09T03:50:45.867Z,1015.63
2018-08-09T03:51:45.845Z,1015.63
2018-08-09T03:52:45.828Z,1015.66
2018-08-09T03:53:45.806Z,1015.63
2018-08-09T03:54:45.789Z,1015.66
2018-08-09T03:55:45.776Z,1015.64
2018-08-09T03:56:45.761Z,1015.69
2018-08-09T03:57:45.727Z,1015.66
2018-08-09T03:58:45.705Z,1015.69
2018-08-09T03:59:45.719Z,1015.69
2018-08-09T04:00:45.668Z,1015.74
2018-08-09T04:01:45.648Z,1015.75
2018-08-09T04:02:45.627Z,1015.72
2018-08-09T04:03:45.608Z,1015.79
2018-08-09T04:04:45.590Z,1015.79
2018-08-09T04:05:45.570Z,1015.83
2018-08-09T04:06:45.549Z,1015.84
2018-08-09T04:07:45.529Z,1015.79
2018-08-09T04:08:45.510Z,1015.80
2018-08-09T04:09:45.488Z,1015.84
2018-08-09T04:10:45.468Z,1015.88
2018-08-09T04:11:45.516Z,1015.88
2018-08-09T04:12:45.429Z,1015.89
2018-08-09T04:13:45.408Z,1015.90
2018-08-09T04:14:45.389Z,1015.89
2018-08-09T04:15:45.369Z,1015.93
2018-08-09T04:16:45.353Z,1015.89
2018-08-09T04:17:45.331Z,1015.84
2018-08-09T04:18:45.311Z,1015.84
2018-08-09T04:19:45.297Z,1015.81
2018-08-09T04:20:45.270Z,1015.80
2018-08-09T04:21:45.250Z,1015.80
2018-08-09T04:22:45.230Z,1015.79
2018-08-09T04:23:45.211Z,1015.79
2018-08-09T04:24:45.191Z,1015.81
2018-08-09T04:25:45.171Z,1015.82
2018-08-09T04:26:45.151Z,1015.83
2018-08-09T04:27:45.133Z,1015.82
2018-08-09T04:28:45.112Z,1015.83
2018-08-09T04:29:45.093Z,1015.80
2018-08-09T04:30:45.078Z,1015.82
2018-08-09T04:31:45.059Z,1015.80
2018-08-09T04:32:45.037Z,1015.83
2018-08-09T04:33:45.016Z,1015.81
2018-08-09T04:34:44.995Z,1015.80
2018-08-09T04:35:44.975Z,1015.80
2018-08-09T04:36:44.957Z,1015.81
2018-08-09T04:37:44.935Z,1015.84
2018-08-09T04:38:44.915Z,1015.86
2018-08-09T04:39:44.898Z,1015.83
2018-08-09T04:40:44.877Z,1015.84
2018-08-09T04:41:44.857Z,1015.86
2018-08-09T04:42:44.840Z,1015.89
2018-08-09T04:43:44.820Z,1015.82
2018-08-09T04:44:44.799Z,1015.89
2018-08-09T04:45:44.778Z,1015.87
2018-08-09T04:46:44.762Z,1015.90
2018-08-09T04:47:44.742Z,1015.83
2018-08-09T04:48:44.721Z,1015.82
2018-08-09T04:49:44.700Z,1015.85
2018-08-09T04:50:44.682Z,1015.86
2018-08-09T04:51:44.662Z,1015.90
2018-08-09T04:52:44.644Z,1015.92
2018-08-09T04:53:44.623Z,1015.95
2018-08-09T04:54:44.607Z,1015.96
2018-08-09T04:55:44.587Z,1016.00
2018-08-09T04:56:44.566Z,1015.92
2018-08-09T04:57:44.547Z,1015.92
2018-08-09T04:58:44.531Z,1015.92
2018-08-09T04:59:44.508Z,1015.93
2018-08-09T05:00:44.491Z,1015.97
2018-08-09T05:01:44.472Z,1015.92
2018-08-09T05:02:44.452Z,1015.93
2018-08-09T05:03:44.435Z,1015.92
2018-08-09T05:04:44.413Z,1015.92
2018-08-09T05:05:44.396Z,1015.91
2018-08-09T05:06:44.381Z,1015.91
2018-08-09T05:07:44.359Z,1015.91
2018-08-09T05:08:44.339Z,1015.87
2018-08-09T05:09:44.322Z,1015.89
2018-08-09T05:10:44.303Z,1015.89
2018-08-09T05:11:44.289Z,1015.87
2018-08-09T05:12:44.266Z,1015.89
2018-08-09T05:13:44.245Z,1015.89
2018-08-09T05:14:44.228Z,1015.86
2018-08-09T05:15:44.209Z,1015.86
2018-08-09T05:16:44.191Z,1015.86
2018-08-09T05:17:44.172Z,1015.87
2018-08-09T05:18:44.153Z,1015.85
2018-08-09T05:19:44.135Z,1015.86
2018-08-09T05:20:44.115Z,1015.85
2018-08-09T05:21:44.098Z,1015.87
2018-08-09T05:22:44.080Z,1015.88
2018-08-09T05:23:44.063Z,1015.90
2018-08-09T05:24:44.041Z,1015.89
2018-08-09T05:25:44.022Z,1015.90
2018-08-09T05:26:44.005Z,1015.91
2018-08-09T05:27:43.986Z,1015.90
2018-08-09T05:28:43.967Z,1015.95
2018-08-09T05:29:43.948Z,1015.94
2018-08-09T05:30:43.930Z,1015.95
2018-08-09T05:31:43.912Z,1015.94
2018-08-09T05:32:43.894Z,1015.95
2018-08-09T05:33:43.875Z,1015.98
2018-08-09T05:34:43.858Z,1015.94
2018-08-09T05:35:43.840Z,1015.96
2018-08-09T05:36:43.820Z,1015.96
2018-08-09T05:37:43.805Z,1015.98
2018-08-09T05:38:43.785Z,1015.98
2018-08-09T05:39:43.767Z,1015.99
2018-08-09T05:40:43.749Z,1015.98
2018-08-09T05:41:43.730Z,1015.99
2018-08-09T05:42:43.713Z,1015.98
2018-08-09T05:43:43.697Z,1015.99
2018-08-09T05:44:43.681Z,1015.99
2018-08-09T05:45:43.659Z,1015.99
2018-08-09T05:46:43.642Z,1016.00
2018-08-09T05:47:43.627Z,1015.96
2018-08-09T05:48:43.608Z,1015.97
2018-08-09T05:49:43.589Z,1015.98
2018-08-09T05:50:43.577Z,1016.02
2018-08-09T05:51:43.556Z,1015.98
2018-08-09T05:52:43.656Z,1015.97
2018-08-09T05:53:43.523Z,1016.00
2018-08-09T05:54:43.506Z,1015.99
2018-08-09T05:55:43.489Z,1015.98
2018-08-09T05:56:43.472Z,1015.97
2018-08-09T05:57:43.457Z,1015.96
2018-08-09T05:58:43.440Z,1015.96
2018-08-09T05:59:43.426Z,1015.93
2018-08-09T06:00:43.411Z,1015.99
2018-08-09T06:01:43.393Z,1015.99
2018-08-09T06:02:43.382Z,1015.96
2018-08-09T06:03:43.366Z,1015.96
2018-08-09T06:04:43.349Z,1015.93
2018-08-09T06:05:43.400Z,1015.90
2018-08-09T06:06:43.318Z,1015.86
2018-08-09T06:07:43.302Z,1015.86
2018-08-09T06:08:43.290Z,1015.85
2018-08-09T06:09:43.271Z,1015.84
2018-08-09T06:10:43.257Z,1015.87
2018-08-09T06:11:43.240Z,1015.85
2018-08-09T06:12:43.225Z,1015.88
2018-08-09T06:13:43.210Z,1015.86
2018-08-09T06:14:43.195Z,1015.87
2018-08-09T06:15:43.183Z,1015.85
2018-08-09T06:16:43.170Z,1015.87
2018-08-09T06:17:43.153Z,1015.88
2018-08-09T06:18:43.156Z,1015.91
2018-08-09T06:19:43.125Z,1015.92
2018-08-09T06:20:43.111Z,1015.92
2018-08-09T06:21:43.096Z,1015.93
2018-08-09T06:22:43.083Z,1015.94
2018-08-09T06:23:43.070Z,1015.93
2018-08-09T06:24:43.056Z,1015.94
2018-08-09T06:25:43.065Z,1015.96
2018-08-09T06:26:43.116Z,1015.95
2018-08-09T06:27:43.017Z,1015.99
2018-08-09T06:28:43.048Z,1015.99
2018-08-09T06:29:42.989Z,1015.96
2018-08-09T06:30:43.000Z,1015.94
2018-08-09T06:31:42.965Z,1015.93
2018-08-09T06:32:42.951Z,1015.98
2018-08-09T06:33:42.939Z,1015.96
2018-08-09T06:34:42.926Z,1015.95
2018-08-09T06:35:42.913Z,1015.92
2018-08-09T06:36:42.899Z,1015.93
2018-08-09T06:37:42.889Z,1015.93
2018-08-09T06:38:42.875Z,1015.94
2018-08-09T06:39:42.863Z,1015.96
2018-08-09T06:40:42.850Z,1015.96
2018-08-09T06:41:42.838Z,1015.95
2018-08-09T06:42:42.828Z,1015.96
2018-08-09T06:43:42.813Z,1015.93
2018-08-09T06:44:42.800Z,1015.93
2018-08-09T06:45:42.789Z,1015.97
2018-08-09T06:46:42.776Z,1015.93
2018-08-09T06:47:42.798Z,1015.92
2018-08-09T06:48:42.750Z,1015.86
2018-08-09T06:49:42.740Z,1015.89
2018-08-09T06:50:42.728Z,1015.86
2018-08-09T06:51:42.715Z,1015.85
2018-08-09T06:52:42.705Z,1015.82
2018-08-09T06:53:42.692Z,1015.86
2018-08-09T06:54:42.679Z,1015.88
2018-08-09T06:55:42.668Z,1015.91
2018-08-09T06:56:42.655Z,1015.90
2018-08-09T06:57:42.643Z,1015.93
2018-08-09T06:58:42.632Z,1015.90
2018-08-09T06:59:42.619Z,1015.88
2018-08-09T07:00:42.608Z,1015.89
2018-08-09T07:01:42.596Z,1015.87
2018-08-09T07:02:42.583Z,1015.91
2018-08-09T07:03:42.576Z,1015.94
2018-08-09T07:04:42.560Z,1015.96
2018-08-09T07:05:42.567Z,1016.01
2018-08-09T07:06:42.567Z,1016.02
2018-08-09T07:07:42.574Z,1016.03
2018-08-09T07:08:42.539Z,1016.04
2018-08-09T07:09:42.503Z,1016.00
2018-08-09T07:10:42.490Z,1016.00
2018-08-09T07:11:42.482Z,1015.98
2018-08-09T07:12:42.529Z,1015.99
2018-08-09T07:13:42.457Z,1015.98
2018-08-09T07:14:42.450Z,1015.96
2018-08-09T07:15:42.436Z,1015.95
2018-08-09T07:16:42.422Z,1015.95
2018-08-09T07:17:42.413Z,1015.98
2018-08-09T07:18:42.402Z,1015.92
2018-08-09T07:19:42.389Z,1015.93
2018-08-09T07:20:42.377Z,1015.89
2018-08-09T07:21:42.367Z,1015.92
2018-08-09T07:22:42.354Z,1015.85
2018-08-09T07:23:42.346Z,1015.87
2018-08-09T07:24:42.330Z,1015.88
2018-08-09T07:25:42.319Z,1015.89
2018-08-09T07:26:42.307Z,1015.91
2018-08-09T07:27:42.294Z,1015.90
2018-08-09T07:28:42.284Z,1015.88
2018-08-09T07:29:42.277Z,1015.86
2018-08-09T07:30:42.259Z,1015.87
2018-08-09T07:31:42.252Z,1015.86
2018-08-09T07:32:42.236Z,1015.85
2018-08-09T07:33:42.279Z,1015.82
2018-08-09T07:34:42.245Z,1015.78
2018-08-09T07:35:42.212Z,1015.76
2018-08-09T07:36:42.197Z,1015.77
2018-08-09T07:37:42.181Z,1015.80
2018-08-09T07:38:42.168Z,1015.79
2018-08-09T07:39:42.193Z,1015.79
2018-08-09T07:40:42.151Z,1015.77
2018-08-09T07:41:42.136Z,1015.76
2018-08-09T07:42:42.126Z,1015.68
2018-08-09T07:43:42.114Z,1015.65
2018-08-09T07:44:42.102Z,1015.60
2018-08-09T07:45:42.093Z,1015.60
2018-08-09T07:46:42.084Z,1015.59
2018-08-09T07:47:42.079Z,1015.58
2018-08-09T07:48:42.069Z,1015.59
2018-08-09T07:49:42.051Z,1015.58
2018-08-09T07:50:42.041Z,1015.57
2018-08-09T07:51:42.031Z,1015.57
2018-08-09T07:52:42.022Z,1015.55
2018-08-09T07:53:42.010Z,1015.56
2018-08-09T07:54:42.001Z,1015.54
2018-08-09T07:55:41.991Z,1015.55
2018-08-09T07:56:41.980Z,1015.50
2018-08-09T07:57:41.969Z,1015.48
2018-08-09T07:58:41.959Z,1015.50
2018-08-09T07:59:41.949Z,1015.46
2018-08-09T08:00:41.942Z,1015.48
2018-08-09T08:01:41.928Z,1015.45
2018-08-09T08:02:41.919Z,1015.51
2018-08-09T08:03:41.910Z,1015.48
2018-08-09T08:04:41.899Z,1015.52
2018-08-09T08:05:41.889Z,1015.51
2018-08-09T08:06:41.879Z,1015.51
2018-08-09T08:07:41.868Z,1015.51
2018-08-09T08:08:41.858Z,1015.51
2018-08-09T08:09:41.847Z,1015.54
2018-08-09T08:10:41.864Z,1015.52
2018-08-09T08:11:41.828Z,1015.49
2018-08-09T08:12:41.844Z,1015.50
2018-08-09T08:13:41.807Z,1015.47
2018-08-09T08:14:41.798Z,1015.49
2018-08-09T08:15:41.786Z,1015.52
2018-08-09T08:16:41.775Z,1015.53
2018-08-09T08:17:44.046Z,1015.56
2018-08-09T08:18:43.805Z,1015.58
2018-08-09T08:19:42.591Z,1015.54
2018-08-09T08:20:42.024Z,1015.58
2018-08-09T08:21:42.429Z,1015.62
2018-08-09T08:22:41.717Z,1015.56
2018-08-09T08:23:41.709Z,1015.57
2018-08-09T08:24:41.700Z,1015.56
2018-08-09T08:25:41.689Z,1015.60
2018-08-09T08:26:41.696Z,1015.54
2018-08-09T08:27:41.674Z,1015.51
2018-08-09T08:28:41.660Z,1015.48
2018-08-09T08:29:41.650Z,1015.48
2018-08-09T08:30:41.641Z,1015.46
2018-08-09T08:31:41.632Z,1015.45
2018-08-09T08:32:41.623Z,1015.41
2018-08-09T08:33:41.614Z,1015.45
2018-08-09T08:34:41.689Z,1015.38
2018-08-09T08:35:41.595Z,1015.44
2018-08-09T08:36:41.586Z,1015.43
2018-08-09T08:37:41.577Z,1015.37
2018-08-09T08:38:41.567Z,1015.38
2018-08-09T08:39:41.557Z,1015.37
2018-08-09T08:40:41.547Z,1015.37
2018-08-09T08:41:41.679Z,1015.38
2018-08-09T08:42:41.529Z,1015.36
2018-08-09T08:43:41.520Z,1015.32
2018-08-09T08:44:41.510Z,1015.29
2018-08-09T08:45:41.501Z,1015.29
2018-08-09T08:46:41.493Z,1015.27
2018-08-09T08:47:41.484Z,1015.28
2018-08-09T08:48:41.474Z,1015.27
2018-08-09T08:49:41.466Z,1015.29
2018-08-09T08:50:41.457Z,1015.27
2018-08-09T08:51:41.448Z,1015.28
2018-08-09T08:52:41.438Z,1015.28
2018-08-09T08:53:41.430Z,1015.29
2018-08-09T08:54:41.420Z,1015.28
2018-08-09T08:55:41.420Z,1015.26
2018-08-09T08:56:41.403Z,1015.24
2018-08-09T08:57:41.395Z,1015.16
2018-08-09T08:58:41.387Z,1015.10
2018-08-09T08:59:41.376Z,1015.08
2018-08-09T09:00:41.366Z,1015.05
2018-08-09T09:01:41.358Z,1015.00
2018-08-09T09:02:41.402Z,1014.99
2018-08-09T09:03:41.339Z,1015.00
2018-08-09T09:04:41.332Z,1015.00
2018-08-09T09:05:41.321Z,1014.97
2018-08-09T09:06:41.344Z,1014.97
2018-08-09T09:07:41.304Z,1014.97
2018-08-09T09:08:41.292Z,1014.93
2018-08-09T09:09:41.283Z,1014.97
2018-08-09T09:10:41.276Z,1014.96
2018-08-09T09:11:41.266Z,1014.94
2018-08-09T09:12:41.256Z,1014.93
2018-08-09T09:13:41.262Z,1014.89
2018-08-09T09:14:41.241Z,1014.89
2018-08-09T09:15:41.228Z,1014.90
2018-08-09T09:16:41.221Z,1014.89
2018-08-09T09:17:41.210Z,1014.88
2018-08-09T09:18:41.201Z,1014.91
2018-08-09T09:19:41.192Z,1014.86
2018-08-09T09:20:41.183Z,1014.88
2018-08-09T09:21:41.173Z,1014.86
2018-08-09T09:22:41.164Z,1014.87
2018-08-09T09:23:41.155Z,1014.82
2018-08-09T09:24:41.147Z,1014.86
2018-08-09T09:25:41.138Z,1014.87
2018-08-09T09:26:41.130Z,1014.83
2018-08-09T09:27:41.120Z,1014.75
2018-08-09T09:28:41.110Z,1014.77
2018-08-09T09:29:41.101Z,1014.75
2018-08-09T09:30:41.094Z,1014.77
2018-08-09T09:31:41.085Z,1014.75
2018-08-09T09:32:41.075Z,1014.77
2018-08-09T09:33:41.069Z,1014.75
2018-08-09T09:34:41.056Z,1014.71
2018-08-09T09:35:41.051Z,1014.70
2018-08-09T09:36:41.039Z,1014.68
2018-08-09T09:37:41.029Z,1014.70
2018-08-09T09:38:41.024Z,1014.71
2018-08-09T09:39:41.012Z,1014.69
2018-08-09T09:40:41.004Z,1014.68
2018-08-09T09:41:40.996Z,1014.68
2018-08-09T09:42:41.032Z,1014.65
2018-08-09T09:43:40.977Z,1014.67
2018-08-09T09:44:40.968Z,1014.67
2018-08-09T09:45:40.960Z,1014.63
2018-08-09T09:46:40.952Z,1014.68
2018-08-09T09:47:40.943Z,1014.65
2018-08-09T09:48:40.935Z,1014.63
2018-08-09T09:49:40.948Z,1014.60
2018-08-09T09:50:40.918Z,1014.60
2018-08-09T09:51:40.910Z,1014.60
2018-08-09T09:52:40.902Z,1014.60
2018-08-09T09:53:40.891Z,1014.57
2018-08-09T09:54:40.883Z,1014.60
2018-08-09T09:55:40.878Z,1014.58
2018-08-09T09:56:40.866Z,1014.58
2018-08-09T09:57:40.858Z,1014.58
2018-08-09T09:58:40.849Z,1014.53
2018-08-09T09:59:40.841Z,1014.56
2018-08-09T10:00:40.832Z,1014.55
2018-08-09T10:01:40.858Z,1014.53
2018-08-09T10:02:40.816Z,1014.48
2018-08-09T10:03:40.807Z,1014.47
2018-08-09T10:04:40.798Z,1014.49
2018-08-09T10:05:40.790Z,1014.49
2018-08-09T10:06:40.781Z,1014.47
2018-08-09T10:07:40.773Z,1014.42
2018-08-09T10:08:40.766Z,1014.42
2018-08-09T10:09:40.757Z,1014.38
2018-08-09T10:10:40.749Z,1014.36
2018-08-09T10:11:40.744Z,1014.36
2018-08-09T10:12:40.778Z,1014.34
2018-08-09T10:13:40.725Z,1014.32
2018-08-09T10:14:40.738Z,1014.30
2018-08-09T10:15:40.707Z,1014.27
2018-08-09T10:16:40.700Z,1014.26
2018-08-09T10:17:40.690Z,1014.27
2018-08-09T10:18:40.682Z,1014.25
2018-08-09T10:19:40.707Z,1014.25
2018-08-09T10:20:40.663Z,1014.25
2018-08-09T10:21:40.659Z,1014.20
2018-08-09T10:22:40.647Z,1014.13
2018-08-09T10:23:40.641Z,1014.11
2018-08-09T10:24:40.632Z,1014.07
2018-08-09T10:25:40.624Z,1014.08
2018-08-09T10:26:40.614Z,1014.07
2018-08-09T10:27:40.610Z,1014.06
2018-08-09T10:28:40.597Z,1014.07
2018-08-09T10:29:40.590Z,1014.08
2018-08-09T10:30:40.581Z,1014.04
2018-08-09T10:31:40.574Z,1014.00
2018-08-09T10:32:40.564Z,1013.94
2018-08-09T10:33:40.556Z,1013.89
2018-08-09T10:34:40.549Z,1013.94
2018-08-09T10:35:40.542Z,1013.92
2018-08-09T10:36:40.534Z,1013.88
2018-08-09T10:37:40.530Z,1013.87
2018-08-09T10:38:40.517Z,1013.88
2018-08-09T10:39:40.508Z,1013.83
2018-08-09T10:40:40.499Z,1013.85
2018-08-09T10:41:40.494Z,1013.82
2018-08-09T10:42:40.548Z,1013.82
2018-08-09T10:43:40.476Z,1013.77
2018-08-09T10:44:40.467Z,1013.79
2018-08-09T10:45:40.459Z,1013.73
2018-08-09T10:46:40.451Z,1013.72
2018-08-09T10:47:40.444Z,1013.74
2018-08-09T10:48:40.434Z,1013.72
2018-08-09T10:49:40.432Z,1013.69
2018-08-09T10:50:40.420Z,1013.68
2018-08-09T10:51:40.411Z,1013.68
2018-08-09T10:52:40.402Z,1013.67
2018-08-09T10:53:40.394Z,1013.65
2018-08-09T10:54:40.384Z,1013.63
2018-08-09T10:55:40.403Z,1013.67
2018-08-09T10:56:40.368Z,1013.60
2018-08-09T10:57:40.360Z,1013.64
2018-08-09T10:58:40.352Z,1013.66
2018-08-09T10:59:40.343Z,1013.66
2018-08-09T11:00:40.334Z,1013.63
2018-08-09T11:01:40.368Z,1013.64
2018-08-09T11:02:40.318Z,1013.64
2018-08-09T11:03:40.309Z,1013.60
2018-08-09T11:04:40.301Z,1013.59
2018-08-09T11:05:40.292Z,1013.58
2018-08-09T11:06:40.285Z,1013.52
2018-08-09T11:07:40.276Z,1013.46
2018-08-09T11:08:40.327Z,1013.43
2018-08-09T11:09:40.257Z,1013.43
2018-08-09T11:10:40.256Z,1013.44
2018-08-09T11:11:40.241Z,1013.41
2018-08-09T11:12:40.229Z,1013.40
2018-08-09T11:13:40.221Z,1013.37
2018-08-09T11:14:40.213Z,1013.36
2018-08-09T11:15:40.203Z,1013.37
2018-08-09T11:16:40.193Z,1013.33
2018-08-09T11:17:40.185Z,1013.33
2018-08-09T11:18:40.176Z,1013.27
2018-08-09T11:19:40.173Z,1013.30
2018-08-09T11:20:40.157Z,1013.33
2018-08-09T11:21:40.148Z,1013.32
2018-08-09T11:22:40.139Z,1013.31
2018-08-09T11:23:40.155Z,1013.28
2018-08-09T11:24:40.120Z,1013.27
2018-08-09T11:25:40.112Z,1013.23
2018-08-09T11:26:40.104Z,1013.20
2018-08-09T11:27:40.093Z,1013.15
2018-08-09T11:28:40.084Z,1013.22
2018-08-09T11:29:40.079Z,1013.19
2018-08-09T11:30:40.066Z,1013.24
2018-08-09T11:31:40.058Z,1013.18
2018-08-09T11:32:40.047Z,1013.12
2018-08-09T11:33:40.038Z,1013.09
2018-08-09T11:34:40.034Z,1013.07
2018-08-09T11:35:40.033Z,1012.98
2018-08-09T11:36:40.014Z,1013.00
2018-08-09T11:37:40.004Z,1012.96
2018-08-09T11:38:39.997Z,1012.93
2018-08-09T11:39:39.986Z,1012.88
2018-08-09T11:40:39.978Z,1012.84
2018-08-09T11:41:39.969Z,1012.85
2018-08-09T11:42:39.961Z,1012.84
2018-08-09T11:43:39.954Z,1012.87
2018-08-09T11:44:39.941Z,1012.79
2018-08-09T11:45:40.219Z,1012.77
2018-08-09T11:46:39.925Z,1012.72
2018-08-09T11:47:39.917Z,1012.64
2018-08-09T11:48:39.907Z,1012.73
2018-08-09T11:49:39.900Z,1012.68
2018-08-09T11:50:39.890Z,1012.72
2018-08-09T11:51:39.882Z,1012.70
2018-08-09T11:52:39.874Z,1012.74
2018-08-09T11:53:39.866Z,1012.74
2018-08-09T11:54:39.858Z,1012.68
2018-08-09T11:55:39.849Z,1012.74
2018-08-09T11:56:39.891Z,1012.66
2018-08-09T11:57:39.832Z,1012.71
2018-08-09T11:58:39.824Z,1012.66
2018-08-09T11:59:39.815Z,1012.64
2018-08-09T12:00:39.806Z,1012.62
2018-08-09T12:01:39.882Z,1012.63
2018-08-09T12:02:39.789Z,1012.61
2018-08-09T12:03:39.780Z,1012.60
2018-08-09T12:04:39.801Z,1012.62
2018-08-09T12:05:39.762Z,1012.64